sensor_id;sensor_type;location;lat;lon;timestamp;pressure;altitude;pressure_sealevel;temperature;humidity
69796;BME280;57073;45.650;9.612;2023-02-13T00:03:10;101275.13;;;6.17;47.62
69796;BME280;57073;45.650;9.612;2023-02-13T00:13:10;101273.44;;;6.36;46.07
69796;BME280;57073;45.650;9.612;2023-02-13T00:23:11;101279.06;;;6.23;47.03
69796;BME280;57073;45.650;9.612;2023-02-13T00:33:11;101286.94;;;6.24;47.50
69796;BME280;57073;45.650;9.612;2023-02-13T00:43:11;101288.88;;;6.12;46.67
69796;BME280;57073;45.650;9.612;2023-02-13T00:53:12;101300.22;;;6.05;47.49
69796;BME280;57073;45.650;9.612;2023-02-13T01:03:14;101300.09;;;6.16;46.94
69796;BME280;57073;45.650;9.612;2023-02-13T01:13:16;101303.47;;;6.08;47.53
69796;BME280;57073;45.650;9.612;2023-02-13T01:23:17;101310.22;;;6.22;46.42
69796;BME280;57073;45.650;9.612;2023-02-13T01:33:17;101298.00;;;6.20;48.03
69796;BME280;57073;45.650;9.612;2023-02-13T01:43:19;101313.88;;;6.31;47.28
69796;BME280;57073;45.650;9.612;2023-02-13T01:53:26;101308.22;;;6.14;47.88
69796;BME280;57073;45.650;9.612;2023-02-13T02:03:35;101306.41;;;5.95;48.27
69796;BME280;57073;45.650;9.612;2023-02-13T02:13:37;101307.31;;;5.85;49.22
69796;BME280;57073;45.650;9.612;2023-02-13T02:44:17;101305.81;;;5.51;50.02
69796;BME280;57073;45.650;9.612;2023-02-13T02:54:39;101301.03;;;5.45;49.82
69796;BME280;57073;45.650;9.612;2023-02-13T03:05:01;101290.38;;;5.45;49.94
69796;BME280;57073;45.650;9.612;2023-02-13T03:15:22;101284.78;;;5.48;49.67
69796;BME280;57073;45.650;9.612;2023-02-13T03:35:52;101290.50;;;5.94;48.12
69796;BME280;57073;45.650;9.612;2023-02-13T03:46:16;101292.16;;;5.85;47.92
69796;BME280;57073;45.650;9.612;2023-02-13T03:56:20;101288.28;;;5.89;47.62
69796;BME280;57073;45.650;9.612;2023-02-13T04:06:50;101296.03;;;6.02;47.43
69796;BME280;57073;45.650;9.612;2023-02-13T04:16:56;101298.75;;;5.81;48.06
69796;BME280;57073;45.650;9.612;2023-02-13T04:26:57;101296.59;;;5.65;48.16
69796;BME280;57073;45.650;9.612;2023-02-13T04:36:58;101294.47;;;5.49;48.97
69796;BME280;57073;45.650;9.612;2023-02-13T04:46:58;101289.56;;;5.54;49.30
69796;BME280;57073;45.650;9.612;2023-02-13T04:56:59;101282.06;;;5.79;48.69
69796;BME280;57073;45.650;9.612;2023-02-13T05:06:59;101289.59;;;6.24;46.41
69796;BME280;57073;45.650;9.612;2023-02-13T05:16:59;101291.69;;;6.11;46.51
69796;BME280;57073;45.650;9.612;2023-02-13T05:27:00;101292.59;;;5.90;48.32
69796;BME280;57073;45.650;9.612;2023-02-13T05:37:00;101287.28;;;5.90;47.75
69796;BME280;57073;45.650;9.612;2023-02-13T05:47:00;101294.38;;;5.70;48.27
69796;BME280;57073;45.650;9.612;2023-02-13T05:57:01;101290.84;;;5.60;48.90
69796;BME280;57073;45.650;9.612;2023-02-13T06:07:02;101298.34;;;5.45;49.54
69796;BME280;57073;45.650;9.612;2023-02-13T06:17:02;101297.66;;;5.43;49.88
69796;BME280;57073;45.650;9.612;2023-02-13T06:27:03;101309.88;;;5.46;49.38
69796;BME280;57073;45.650;9.612;2023-02-13T06:37:03;101317.56;;;5.49;50.61
69796;BME280;57073;45.650;9.612;2023-02-13T06:47:03;101326.34;;;5.70;50.06
69796;BME280;57073;45.650;9.612;2023-02-13T06:57:04;101329.13;;;5.59;49.96
69796;BME280;57073;45.650;9.612;2023-02-13T07:07:04;101333.75;;;5.57;50.65
69796;BME280;57073;45.650;9.612;2023-02-13T07:17:05;101341.81;;;5.76;50.44
69796;BME280;57073;45.650;9.612;2023-02-13T07:27:05;101358.22;;;6.22;49.06
69796;BME280;57073;45.650;9.612;2023-02-13T07:37:05;101348.94;;;7.04;48.06
69796;BME280;57073;45.650;9.612;2023-02-13T07:47:06;101360.03;;;8.12;46.29
69796;BME280;57073;45.650;9.612;2023-02-13T07:57:06;101362.88;;;9.00;44.91
69796;BME280;57073;45.650;9.612;2023-02-13T08:07:06;101364.13;;;9.67;43.16
69796;BME280;57073;45.650;9.612;2023-02-13T08:17:08;101363.22;;;10.35;42.21
69796;BME280;57073;45.650;9.612;2023-02-13T08:27:11;101361.25;;;10.94;41.40
69796;BME280;57073;45.650;9.612;2023-02-13T08:37:12;101344.34;;;11.50;40.22
69796;BME280;57073;45.650;9.612;2023-02-13T08:47:12;101345.38;;;11.88;40.13
69796;BME280;57073;45.650;9.612;2023-02-13T08:57:13;101350.63;;;12.21;39.62
69796;BME280;57073;45.650;9.612;2023-02-13T09:07:13;101342.91;;;12.41;38.59
69796;BME280;57073;45.650;9.612;2023-02-13T09:17:13;101337.19;;;12.68;38.09
69796;BME280;57073;45.650;9.612;2023-02-13T09:27:17;101336.28;;;12.75;37.75
69796;BME280;57073;45.650;9.612;2023-02-13T09:37:17;101330.59;;;12.70;38.03
69796;BME280;57073;45.650;9.612;2023-02-13T09:47:35;101331.84;;;12.59;38.49
69796;BME280;57073;45.650;9.612;2023-02-13T09:57:42;101327.50;;;12.35;38.89
69796;BME280;57073;45.650;9.612;2023-02-13T10:18:09;101323.38;;;12.16;40.17
69796;BME280;57073;45.650;9.612;2023-02-13T10:28:23;101316.84;;;12.19;39.91
69796;BME280;57073;45.650;9.612;2023-02-13T10:38:29;101306.16;;;12.02;39.73
69796;BME280;57073;45.650;9.612;2023-02-13T11:09:00;101271.00;;;12.27;39.55
69796;BME280;57073;45.650;9.612;2023-02-13T11:19:00;101261.59;;;12.23;39.70
69796;BME280;57073;45.650;9.612;2023-02-13T11:29:05;101259.91;;;12.45;39.45
69796;BME280;57073;45.650;9.612;2023-02-13T11:39:22;101251.38;;;12.41;39.85
69796;BME280;57073;45.650;9.612;2023-02-13T11:49:31;101257.13;;;12.38;39.67
69796;BME280;57073;45.650;9.612;2023-02-13T11:59:43;101239.66;;;12.34;39.26
69796;BME280;57073;45.650;9.612;2023-02-13T12:09:47;101243.22;;;12.50;39.24
69796;BME280;57073;45.650;9.612;2023-02-13T12:19:50;101222.53;;;12.65;39.55
69796;BME280;57073;45.650;9.612;2023-02-13T12:30:24;101206.19;;;12.66;39.05
69796;BME280;57073;45.650;9.612;2023-02-13T12:40:49;101191.44;;;12.77;39.27
69796;BME280;57073;45.650;9.612;2023-02-13T12:51:19;101188.56;;;12.64;39.34
69796;BME280;57073;45.650;9.612;2023-02-13T13:01:52;101166.38;;;12.62;38.93
69796;BME280;57073;45.650;9.612;2023-02-13T13:12:02;101152.69;;;12.63;39.44
69796;BME280;57073;45.650;9.612;2023-02-13T13:22:20;101147.22;;;12.57;39.74
69796;BME280;57073;45.650;9.612;2023-02-13T13:32:23;101140.72;;;12.66;39.95
69796;BME280;57073;45.650;9.612;2023-02-13T13:42:46;101132.06;;;12.56;39.14
69796;BME280;57073;45.650;9.612;2023-02-13T14:03:24;101116.84;;;12.63;39.98
69796;BME280;57073;45.650;9.612;2023-02-13T14:13:39;101110.06;;;12.67;39.51
69796;BME280;57073;45.650;9.612;2023-02-13T14:23:43;101107.38;;;12.52;39.52
69796;BME280;57073;45.650;9.612;2023-02-13T14:33:55;101100.59;;;12.71;39.73
69796;BME280;57073;45.650;9.612;2023-02-13T14:43:56;101095.00;;;12.88;39.47
69796;BME280;57073;45.650;9.612;2023-02-13T14:54:17;101091.06;;;13.05;39.23
69796;BME280;57073;45.650;9.612;2023-02-13T15:04:40;101085.19;;;13.16;38.64
69796;BME280;57073;45.650;9.612;2023-02-13T15:14:41;101073.78;;;13.14;38.61
69796;BME280;57073;45.650;9.612;2023-02-13T15:24:44;101085.66;;;13.05;38.89
69796;BME280;57073;45.650;9.612;2023-02-13T15:34:47;101073.34;;;12.81;39.55
69796;BME280;57073;45.650;9.612;2023-02-13T15:44:49;101081.63;;;12.79;38.69
69796;BME280;57073;45.650;9.612;2023-02-13T15:54:53;101083.22;;;12.59;40.01
69796;BME280;57073;45.650;9.612;2023-02-13T16:04:54;101075.63;;;12.62;39.44
69796;BME280;57073;45.650;9.612;2023-02-13T16:15:00;101074.97;;;12.45;39.77
69796;BME280;57073;45.650;9.612;2023-02-13T16:25:03;101087.59;;;12.30;39.92
69796;BME280;57073;45.650;9.612;2023-02-13T16:45:22;101092.34;;;11.90;41.42
69796;BME280;57073;45.650;9.612;2023-02-13T16:55:23;101099.88;;;11.72;41.70
69796;BME280;57073;45.650;9.612;2023-02-13T17:05:26;101115.94;;;11.57;42.05
69796;BME280;57073;45.650;9.612;2023-02-13T17:15:29;101111.69;;;11.39;42.35
69796;BME280;57073;45.650;9.612;2023-02-13T17:25:37;101121.00;;;11.28;42.13
69796;BME280;57073;45.650;9.612;2023-02-13T17:35:37;101128.06;;;10.90;43.97
69796;BME280;57073;45.650;9.612;2023-02-13T17:45:38;101127.59;;;10.78;44.46
69796;BME280;57073;45.650;9.612;2023-02-13T17:55:39;101138.44;;;10.53;45.68
69796;BME280;57073;45.650;9.612;2023-02-13T18:05:39;101137.75;;;10.43;45.95
69796;BME280;57073;45.650;9.612;2023-02-13T18:15:43;101136.94;;;10.26;48.55
69796;BME280;57073;45.650;9.612;2023-02-13T18:25:44;101143.47;;;10.15;49.51
69796;BME280;57073;45.650;9.612;2023-02-13T18:35:44;101151.19;;;10.02;49.62
69796;BME280;57073;45.650;9.612;2023-02-13T18:45:44;101163.28;;;9.90;50.00
69796;BME280;57073;45.650;9.612;2023-02-13T18:55:45;101167.56;;;9.66;50.87
69796;BME280;57073;45.650;9.612;2023-02-13T19:05:45;101160.72;;;9.55;51.17
69796;BME280;57073;45.650;9.612;2023-02-13T19:15:45;101177.53;;;9.23;51.58
69796;BME280;57073;45.650;9.612;2023-02-13T19:25:46;101174.81;;;9.15;52.46
69796;BME280;57073;45.650;9.612;2023-02-13T19:35:56;101179.97;;;9.08;52.13
69796;BME280;57073;45.650;9.612;2023-02-13T19:45:56;101194.28;;;8.91;52.27
69796;BME280;57073;45.650;9.612;2023-02-13T19:56:01;101198.09;;;8.80;52.88
69796;BME280;57073;45.650;9.612;2023-02-13T20:06:11;101205.63;;;8.58;54.13
69796;BME280;57073;45.650;9.612;2023-02-13T20:16:14;101214.91;;;8.46;52.93
69796;BME280;57073;45.650;9.612;2023-02-13T20:26:16;101214.91;;;8.28;52.99
69796;BME280;57073;45.650;9.612;2023-02-13T20:36:23;101220.97;;;8.12;54.08
69796;BME280;57073;45.650;9.612;2023-02-13T20:46:24;101218.91;;;7.88;54.89
69796;BME280;57073;45.650;9.612;2023-02-13T20:56:25;101220.97;;;7.76;55.20
69796;BME280;57073;45.650;9.612;2023-02-13T21:06:29;101227.59;;;7.72;56.06
69796;BME280;57073;45.650;9.612;2023-02-13T21:16:35;101241.06;;;7.98;54.96
69796;BME280;57073;45.650;9.612;2023-02-13T21:26:35;101228.09;;;8.03;54.81
69796;BME280;57073;45.650;9.612;2023-02-13T21:36:37;101220.09;;;7.76;54.90
69796;BME280;57073;45.650;9.612;2023-02-13T21:46:37;101209.66;;;7.82;54.32
69796;BME280;57073;45.650;9.612;2023-02-13T21:56:39;101212.72;;;7.87;54.34
69796;BME280;57073;45.650;9.612;2023-02-13T22:06:40;101198.38;;;7.89;54.16
69796;BME280;57073;45.650;9.612;2023-02-13T22:16:40;101200.47;;;8.03;53.42
69796;BME280;57073;45.650;9.612;2023-02-13T22:26:42;101206.69;;;8.03;53.25
69796;BME280;57073;45.650;9.612;2023-02-13T22:36:44;101200.47;;;8.03;54.24
69796;BME280;57073;45.650;9.612;2023-02-13T22:46:44;101187.13;;;7.67;53.17
69796;BME280;57073;45.650;9.612;2023-02-13T22:56:45;101194.06;;;7.60;55.06
69796;BME280;57073;45.650;9.612;2023-02-13T23:06:45;101191.84;;;7.55;54.53
69796;BME280;57073;45.650;9.612;2023-02-13T23:16:45;101199.41;;;7.60;54.29
69796;BME280;57073;45.650;9.612;2023-02-13T23:27:04;101185.03;;;7.43;52.86
69796;BME280;57073;45.650;9.612;2023-02-13T23:37:04;101196.94;;;7.48;51.77
69796;BME280;57073;45.650;9.612;2023-02-13T23:47:05;101185.88;;;7.43;53.24
69796;BME280;57073;45.650;9.612;2023-02-13T23:57:05;101176.88;;;7.44;55.04
